Columbus, Ohio
Traffic Map
Current Weather Conditions
Columbus, Ohio
Overcast
Overcast
12°
Feels Like: 2°
Wind Chill: Ceiling: 1700
Heat Index: 12° Visibility: 7mi
Dew Point: Wind: 7mph
Humidity: 77% Direction: 220° (SW)
Pressure: 30.51in Gusts: 0mph
Raw Report DataKCMH 171751Z 22006KT 7SM OVC017 M11/M14 A3051 RMK AO2 SNE50 SLP348 P0000 60000 933003 4/005 T11111144 11106 21128 58009
Traffic Incident Summary
Active as of:
Severity:
Category:
InformationThere was an issue retrieving the traffic information for this location. Please try a different location or try again shortly.
Advertisements